Terminal Aerodrome Forecast
Issued by NWS Topeka, KS

Home | Current Version | Previous Version | Graphics & Text | Print | Product List | Glossary On
Versions: 1 2 3 4 5 6 7 8 9 10 11 12 13 14
000
FTUS43 KTOP 290500
TAFTOP
TAF
KTOP 290520Z 2906/3006 00000KT 3SM BR SKC
      TEMPO 2909/2913 1/2SM FG
     FM291400 15005KT P6SM SCT060=

USA.gov is the U.S. government's official web portal to all federal, state and local government web resources and services.